createdAt,value
2023-04-25T00:04:52.215Z,23.40
2023-04-25T00:14:59.341Z,22.60
2023-04-25T00:25:04.567Z,18.60
2023-04-25T00:35:12.702Z,18.00
2023-04-25T00:45:16.819Z,17.20
2023-04-25T00:55:21.319Z,18.70
2023-04-25T01:05:26.825Z,18.20
2023-04-25T01:15:30.577Z,45.00
2023-04-25T01:25:54.808Z,32.10
2023-04-25T01:36:00.521Z,21.20
2023-04-25T01:46:06.134Z,25.80
2023-04-25T01:56:34.479Z,24.40
2023-04-25T02:06:42.949Z,28.50
2023-04-25T02:16:52.598Z,30.70
2023-04-25T02:27:42.377Z,23.70
2023-04-25T02:37:46.443Z,21.40
2023-04-25T02:47:50.885Z,19.90
2023-04-25T02:57:56.989Z,20.70
2023-04-25T03:08:12.195Z,20.30
2023-04-25T03:18:19.115Z,19.80
2023-04-25T03:28:24.932Z,19.90
2023-04-25T03:38:30.636Z,19.90
2023-04-25T03:48:39.716Z,19.70
2023-04-25T03:58:44.656Z,19.00
2023-04-25T04:08:50.216Z,17.30
2023-04-25T04:18:55.889Z,17.50
2023-04-25T04:29:42.609Z,17.40
2023-04-25T04:39:54.894Z,16.90
2023-04-25T04:50:11.447Z,16.00
2023-04-25T05:00:39.487Z,16.60
2023-04-25T05:12:08.729Z,15.00
2023-04-25T05:23:28.567Z,15.60
2023-04-25T05:33:52.985Z,15.60
2023-04-25T05:44:00.416Z,15.50
2023-04-25T05:54:15.412Z,15.30
2023-04-25T06:04:20.209Z,16.40
2023-04-25T06:14:29.642Z,13.70
2023-04-25T06:24:34.183Z,11.20
2023-04-25T06:34:43.480Z,9.50
2023-04-25T06:45:28.232Z,11.70
2023-04-25T06:55:36.090Z,8.80
2023-04-25T07:05:54.036Z,8.50
2023-04-25T07:15:58.536Z,8.90
2023-04-25T07:26:08.637Z,9.60
2023-04-25T07:36:16.421Z,8.60
2023-04-25T07:46:26.109Z,7.00
2023-04-25T07:56:38.518Z,6.70
2023-04-25T08:06:55.012Z,6.20
2023-04-25T08:17:04.837Z,6.40
2023-04-25T08:27:50.008Z,6.10
2023-04-25T08:38:16.886Z,5.50
2023-04-25T08:48:27.966Z,5.70
2023-04-25T08:58:33.576Z,5.40
2023-04-25T09:08:38.826Z,1.00
2023-04-25T09:18:48.338Z,1.00
2023-04-25T09:29:35.074Z,1.30
2023-04-25T09:39:41.709Z,0.90
2023-04-25T09:49:51.409Z,0.80
2023-04-25T09:59:57.294Z,0.70
2023-04-25T10:10:46.994Z,0.80
2023-04-25T10:20:54.480Z,0.90
2023-04-25T10:31:04.243Z,0.70
2023-04-25T10:41:10.206Z,0.90
2023-04-25T10:51:30.799Z,0.70
2023-04-25T11:01:47.026Z,0.80
2023-04-25T11:12:01.947Z,1.10
2023-04-25T11:22:06.570Z,1.30
2023-04-25T11:32:13.950Z,1.30
2023-04-25T11:42:18.808Z,1.70
2023-04-25T11:52:22.387Z,1.90
2023-04-25T12:02:27.434Z,2.00
2023-04-25T12:12:36.812Z,2.00
2023-04-25T12:22:45.960Z,2.00
2023-04-25T12:32:52.403Z,2.20
2023-04-25T12:42:58.637Z,2.10
2023-04-25T12:53:02.282Z,2.40
2023-04-25T13:03:06.083Z,2.50
2023-04-25T13:13:11.574Z,2.50
2023-04-25T13:23:17.003Z,2.60
2023-04-25T13:33:23.490Z,2.70
2023-04-25T13:43:27.156Z,2.60
2023-04-25T13:53:32.473Z,2.40
2023-04-25T14:03:36.545Z,2.70
2023-04-25T14:13:40.986Z,2.60
2023-04-25T14:23:45.063Z,2.80
2023-04-25T14:33:50.508Z,2.60
2023-04-25T14:44:16.633Z,2.80
2023-04-25T14:55:22.584Z,2.50
2023-04-25T15:05:26.739Z,2.90
2023-04-25T15:15:32.373Z,2.90
2023-04-25T15:25:37.932Z,2.70
2023-04-25T15:35:43.723Z,2.80
2023-04-25T15:45:47.350Z,2.90
2023-04-25T15:55:51.335Z,4.10
2023-04-25T16:05:54.961Z,2.70
2023-04-25T16:15:58.793Z,2.40
2023-04-25T16:26:02.363Z,3.20
2023-04-25T16:36:08.180Z,2.40
2023-04-25T16:46:12.073Z,2.20
2023-04-25T16:57:18.465Z,2.20
2023-04-25T17:07:24.768Z,2.10
2023-04-25T17:17:30.345Z,2.30
2023-04-25T17:27:35.299Z,2.60
2023-04-25T17:37:41.774Z,2.40
2023-04-25T17:47:45.688Z,2.20
2023-04-25T17:57:53.324Z,2.60
2023-04-25T18:07:57.138Z,3.10
2023-04-25T18:18:04.748Z,3.20
2023-04-25T18:28:09.329Z,3.00
2023-04-25T18:39:22.028Z,2.70
2023-04-25T18:49:26.912Z,2.20
2023-04-25T18:59:30.427Z,2.60
2023-04-25T19:09:34.100Z,2.70
2023-04-25T19:19:41.308Z,2.70
2023-04-25T19:29:48.421Z,2.80
2023-04-25T19:39:53.169Z,2.80
2023-04-25T19:49:57.141Z,2.80
2023-04-25T20:00:05.060Z,3.30
2023-04-25T20:10:17.832Z,3.60
2023-04-25T20:20:22.411Z,3.30
2023-04-25T20:30:26.048Z,3.30
2023-04-25T20:41:10.800Z,3.20
2023-04-25T20:51:14.485Z,3.10
2023-04-25T21:01:18.693Z,3.20
2023-04-25T21:12:25.674Z,3.20
2023-04-25T21:22:29.264Z,3.00
2023-04-25T21:32:33.269Z,3.50
2023-04-25T21:42:38.884Z,3.30
2023-04-25T21:52:42.994Z,3.20
2023-04-25T22:02:48.357Z,3.10
2023-04-25T22:12:53.153Z,3.20
2023-04-25T22:22:57.217Z,3.10
2023-04-25T22:33:01.153Z,3.40
2023-04-25T22:43:06.647Z,3.70
2023-04-25T22:53:14.786Z,3.70
2023-04-25T23:03:19.637Z,8.00
2023-04-25T23:14:07.857Z,5.00
2023-04-25T23:24:11.451Z,4.30
2023-04-25T23:34:14.974Z,3.60
2023-04-25T23:44:19.187Z,3.90
2023-04-25T23:54:22.985Z,3.90
